sensor_id;sensor_type;location;lat;lon;timestamp;pressure;altitude;pressure_sealevel;temperature;humidity
25156;BME280;21913;52.456;13.634;2022-07-17T00:00:09;101388.75;;;19.67;70.15
25156;BME280;21913;52.456;13.634;2022-07-17T00:05:11;101383.53;;;19.65;70.00
25156;BME280;21913;52.456;13.634;2022-07-17T00:10:12;101385.25;;;19.66;70.07
25156;BME280;21913;52.456;13.634;2022-07-17T00:15:14;101383.53;;;19.65;70.03
25156;BME280;21913;52.456;13.634;2022-07-17T00:20:15;101386.16;;;19.65;70.01
25156;BME280;21913;52.456;13.634;2022-07-17T00:25:17;101390.53;;;19.65;69.79
25156;BME280;21913;52.456;13.634;2022-07-17T00:30:18;101377.41;;;19.65;70.11
25156;BME280;21913;52.456;13.634;2022-07-17T00:35:20;101381.75;;;19.66;69.94
25156;BME280;21913;52.456;13.634;2022-07-17T00:40:22;101382.66;;;19.65;70.01
25156;BME280;21913;52.456;13.634;2022-07-17T00:45:24;101383.56;;;19.64;69.79
25156;BME280;21913;52.456;13.634;2022-07-17T00:50:27;101376.53;;;19.64;69.80
25156;BME280;21913;52.456;13.634;2022-07-17T00:55:29;101374.78;;;19.65;70.03
25156;BME280;21913;52.456;13.634;2022-07-17T01:00:47;101380.03;;;19.65;69.76
25156;BME280;21913;52.456;13.634;2022-07-17T01:05:50;101380.03;;;19.65;69.92
25156;BME280;21913;52.456;13.634;2022-07-17T01:10:52;101380.94;;;19.64;69.90
25156;BME280;21913;52.456;13.634;2022-07-17T01:15:53;101381.78;;;19.64;69.66
25156;BME280;21913;52.456;13.634;2022-07-17T01:20:55;101389.66;;;19.64;69.92
25156;BME280;21913;52.456;13.634;2022-07-17T01:25:56;101389.66;;;19.64;69.80
25156;BME280;21913;52.456;13.634;2022-07-17T01:30:59;101396.69;;;19.64;69.74
25156;BME280;21913;52.456;13.634;2022-07-17T01:36:01;101404.56;;;19.64;69.89
25156;BME280;21913;52.456;13.634;2022-07-17T01:41:03;101393.19;;;19.63;69.86
25156;BME280;21913;52.456;13.634;2022-07-17T01:46:04;101391.44;;;19.64;69.87
25156;BME280;21913;52.456;13.634;2022-07-17T01:51:06;101377.44;;;19.63;69.73
25156;BME280;21913;52.456;13.634;2022-07-17T01:56:07;101382.69;;;19.63;69.66
25156;BME280;21913;52.456;13.634;2022-07-17T02:01:09;101394.97;;;19.63;69.76
25156;BME280;21913;52.456;13.634;2022-07-17T02:06:11;101384.47;;;19.63;69.80
25156;BME280;21913;52.456;13.634;2022-07-17T02:11:12;101383.56;;;19.64;69.58
25156;BME280;21913;52.456;13.634;2022-07-17T02:16:14;101381.81;;;19.63;69.60
25156;BME280;21913;52.456;13.634;2022-07-17T02:21:15;101373.06;;;19.62;69.81
25156;BME280;21913;52.456;13.634;2022-07-17T02:26:17;101372.19;;;19.62;69.53
25156;BME280;21913;52.456;13.634;2022-07-17T02:31:19;101373.94;;;19.63;69.58
25156;BME280;21913;52.456;13.634;2022-07-17T02:36:20;101370.44;;;19.62;69.54
25156;BME280;21913;52.456;13.634;2022-07-17T02:41:21;101380.06;;;19.62;69.75
25156;BME280;21913;52.456;13.634;2022-07-17T02:46:23;101382.69;;;19.62;69.65
25156;BME280;21913;52.456;13.634;2022-07-17T02:51:24;101380.97;;;19.61;69.54
25156;BME280;21913;52.456;13.634;2022-07-17T02:56:27;101382.69;;;19.62;69.70
25156;BME280;21913;52.456;13.634;2022-07-17T03:01:29;101383.56;;;19.62;69.47
25156;BME280;21913;52.456;13.634;2022-07-17T03:06:30;101379.19;;;19.61;69.59
25156;BME280;21913;52.456;13.634;2022-07-17T03:11:32;101384.47;;;19.61;69.47
25156;BME280;21913;52.456;13.634;2022-07-17T03:16:33;101387.94;;;19.62;69.61
25156;BME280;21913;52.456;13.634;2022-07-17T03:21:35;101390.59;;;19.60;69.47
25156;BME280;21913;52.456;13.634;2022-07-17T03:26:36;101396.72;;;19.61;69.46
25156;BME280;21913;52.456;13.634;2022-07-17T03:31:39;101392.31;;;19.61;69.47
25156;BME280;21913;52.456;13.634;2022-07-17T03:36:41;101384.50;;;19.60;69.64
25156;BME280;21913;52.456;13.634;2022-07-17T03:41:42;101384.50;;;19.60;69.48
25156;BME280;21913;52.456;13.634;2022-07-17T03:46:44;101393.22;;;19.60;69.39
25156;BME280;21913;52.456;13.634;2022-07-17T03:51:45;101388.84;;;19.61;69.54
25156;BME280;21913;52.456;13.634;2022-07-17T03:56:47;101398.47;;;19.60;69.46
25156;BME280;21913;52.456;13.634;2022-07-17T04:01:48;101400.25;;;19.60;69.44
25156;BME280;21913;52.456;13.634;2022-07-17T04:06:50;101405.50;;;19.60;69.24
25156;BME280;21913;52.456;13.634;2022-07-17T04:11:51;101410.75;;;19.60;69.39
25156;BME280;21913;52.456;13.634;2022-07-17T04:16:53;101426.50;;;19.60;69.46
25156;BME280;21913;52.456;13.634;2022-07-17T04:21:55;101430.88;;;19.59;69.33
25156;BME280;21913;52.456;13.634;2022-07-17T04:26:56;101418.63;;;19.58;69.33
25156;BME280;21913;52.456;13.634;2022-07-17T04:31:58;101416.00;;;19.60;69.21
25156;BME280;21913;52.456;13.634;2022-07-17T04:36:59;101402.88;;;19.58;69.39
25156;BME280;21913;52.456;13.634;2022-07-17T04:42:01;101395.88;;;19.59;69.51
25156;BME280;21913;52.456;13.634;2022-07-17T04:47:02;101395.88;;;19.59;69.28
25156;BME280;21913;52.456;13.634;2022-07-17T04:52:04;101409.00;;;19.59;69.18
25156;BME280;21913;52.456;13.634;2022-07-17T04:57:05;101418.63;;;19.58;69.15
25156;BME280;21913;52.456;13.634;2022-07-17T05:02:07;101435.25;;;19.59;69.26
25156;BME280;21913;52.456;13.634;2022-07-17T05:07:08;101430.00;;;19.57;69.35
25156;BME280;21913;52.456;13.634;2022-07-17T05:12:10;101437.88;;;19.57;69.41
25156;BME280;21913;52.456;13.634;2022-07-17T05:17:12;101438.75;;;19.58;69.34
25156;BME280;21913;52.456;13.634;2022-07-17T05:22:13;101429.13;;;19.58;69.16
25156;BME280;21913;52.456;13.634;2022-07-17T05:27:15;101433.50;;;19.56;69.15
25156;BME280;21913;52.456;13.634;2022-07-17T05:32:16;101430.00;;;19.57;69.42
25156;BME280;21913;52.456;13.634;2022-07-17T05:37:18;101434.38;;;19.57;69.47
25156;BME280;21913;52.456;13.634;2022-07-17T05:42:19;101436.13;;;19.58;69.43
25156;BME280;21913;52.456;13.634;2022-07-17T05:47:21;101426.50;;;19.57;69.28
25156;BME280;21913;52.456;13.634;2022-07-17T05:52:22;101423.00;;;19.58;69.51
25156;BME280;21913;52.456;13.634;2022-07-17T05:57:24;101413.38;;;19.57;69.48
25156;BME280;21913;52.456;13.634;2022-07-17T06:02:25;101410.78;;;19.55;69.30
25156;BME280;21913;52.456;13.634;2022-07-17T06:07:27;101412.50;;;19.56;69.37
25156;BME280;21913;52.456;13.634;2022-07-17T06:12:28;101414.25;;;19.56;69.50
25156;BME280;21913;52.456;13.634;2022-07-17T06:17:30;101423.00;;;19.56;69.29
25156;BME280;21913;52.456;13.634;2022-07-17T06:22:32;101429.16;;;19.55;69.56
25156;BME280;21913;52.456;13.634;2022-07-17T06:27:34;101435.25;;;19.56;69.56
25156;BME280;21913;52.456;13.634;2022-07-17T06:32:37;101447.50;;;19.57;69.65
25156;BME280;21913;52.456;13.634;2022-07-17T06:37:39;101442.28;;;19.55;69.44
25156;BME280;21913;52.456;13.634;2022-07-17T06:42:40;101440.50;;;19.56;69.57
25156;BME280;21913;52.456;13.634;2022-07-17T06:47:42;101450.16;;;19.55;69.43
25156;BME280;21913;52.456;13.634;2022-07-17T06:52:43;101445.75;;;19.56;69.44
25156;BME280;21913;52.456;13.634;2022-07-17T06:57:46;101444.03;;;19.55;69.46
25156;BME280;21913;52.456;13.634;2022-07-17T07:02:48;101445.75;;;19.56;69.73
25156;BME280;21913;52.456;13.634;2022-07-17T07:07:50;101423.88;;;19.57;69.36
25156;BME280;21913;52.456;13.634;2022-07-17T07:12:51;101437.88;;;19.57;69.21
25156;BME280;21913;52.456;13.634;2022-07-17T07:17:52;101442.25;;;19.60;69.22
25156;BME280;21913;52.456;13.634;2022-07-17T07:22:54;101439.59;;;19.61;69.28
25156;BME280;21913;52.456;13.634;2022-07-17T07:27:57;101421.19;;;19.64;69.32
25156;BME280;21913;52.456;13.634;2022-07-17T07:32:58;101405.38;;;19.66;69.29
25156;BME280;21913;52.456;13.634;2022-07-17T07:38:00;101420.25;;;19.67;69.10
25156;BME280;21913;52.456;13.634;2022-07-17T07:43:02;101420.25;;;19.68;69.10
25156;BME280;21913;52.456;13.634;2022-07-17T07:48:03;101406.22;;;19.69;69.01
25156;BME280;21913;52.456;13.634;2022-07-17T07:53:05;101409.69;;;19.72;69.10
25156;BME280;21913;52.456;13.634;2022-07-17T07:58:08;101406.19;;;19.71;68.88
25156;BME280;21913;52.456;13.634;2022-07-17T08:03:10;101421.91;;;19.73;68.94
25156;BME280;21913;52.456;13.634;2022-07-17T08:08:11;101431.53;;;19.74;68.90
25156;BME280;21913;52.456;13.634;2022-07-17T08:13:13;101447.31;;;19.74;69.07
25156;BME280;21913;52.456;13.634;2022-07-17T08:18:14;101450.75;;;19.76;68.94
25156;BME280;21913;52.456;13.634;2022-07-17T08:23:17;101449.00;;;19.76;69.07
25156;BME280;21913;52.456;13.634;2022-07-17T08:28:18;101455.97;;;19.77;68.90
25156;BME280;21913;52.456;13.634;2022-07-17T08:33:20;101463.00;;;19.77;68.99
25156;BME280;21913;52.456;13.634;2022-07-17T08:38:21;101466.47;;;19.77;69.08
25156;BME280;21913;52.456;13.634;2022-07-17T08:43:24;101463.00;;;19.77;69.01
25156;BME280;21913;52.456;13.634;2022-07-17T08:48:26;101461.22;;;19.77;68.78
25156;BME280;21913;52.456;13.634;2022-07-17T08:53:28;101465.59;;;19.78;69.11
25156;BME280;21913;52.456;13.634;2022-07-17T08:58:29;101464.72;;;19.78;69.12
25156;BME280;21913;52.456;13.634;2022-07-17T09:03:31;101462.09;;;19.78;69.09
25156;BME280;21913;52.456;13.634;2022-07-17T09:08:33;101465.59;;;19.78;68.90
25156;BME280;21913;52.456;13.634;2022-07-17T09:13:35;101462.97;;;19.78;69.18
25156;BME280;21913;52.456;13.634;2022-07-17T09:18:44;101456.84;;;19.78;69.24
25156;BME280;21913;52.456;13.634;2022-07-17T09:23:56;101453.34;;;19.77;69.14
25156;BME280;21913;52.456;13.634;2022-07-17T09:28:58;101458.59;;;19.77;69.10
25156;BME280;21913;52.456;13.634;2022-07-17T09:33:59;101456.84;;;19.78;69.13
25156;BME280;21913;52.456;13.634;2022-07-17T09:39:01;101445.47;;;19.77;69.25
25156;BME280;21913;52.456;13.634;2022-07-17T09:44:03;101442.88;;;19.76;69.34
25156;BME280;21913;52.456;13.634;2022-07-17T09:49:05;101443.75;;;19.76;69.17
25156;BME280;21913;52.456;13.634;2022-07-17T09:54:08;101442.84;;;19.77;69.33
25156;BME280;21913;52.456;13.634;2022-07-17T09:59:11;101438.50;;;19.76;69.27
25156;BME280;21913;52.456;13.634;2022-07-17T10:04:13;101434.13;;;19.75;69.45
25156;BME280;21913;52.456;13.634;2022-07-17T10:09:14;101442.00;;;19.75;69.52
25156;BME280;21913;52.456;13.634;2022-07-17T10:14:17;101442.88;;;19.76;69.56
25156;BME280;21913;52.456;13.634;2022-07-17T10:19:19;101433.28;;;19.75;69.45
25156;BME280;21913;52.456;13.634;2022-07-17T10:24:21;101439.38;;;19.75;69.62
25156;BME280;21913;52.456;13.634;2022-07-17T10:35:05;101433.28;;;19.75;69.37
25156;BME280;21913;52.456;13.634;2022-07-17T10:45:09;101438.53;;;19.73;69.76
25156;BME280;21913;52.456;13.634;2022-07-17T10:50:11;101445.53;;;19.74;69.91
25156;BME280;21913;52.456;13.634;2022-07-17T10:55:20;101443.78;;;19.73;69.72
25156;BME280;21913;52.456;13.634;2022-07-17T11:00:22;101443.81;;;19.72;69.48
25156;BME280;21913;52.456;13.634;2022-07-17T11:05:24;101428.09;;;19.70;69.62
25156;BME280;21913;52.456;13.634;2022-07-17T11:10:26;101429.81;;;19.71;69.70
25156;BME280;21913;52.456;13.634;2022-07-17T11:15:28;101425.47;;;19.70;70.03
25156;BME280;21913;52.456;13.634;2022-07-17T11:20:29;101426.31;;;19.70;69.88
25156;BME280;21913;52.456;13.634;2022-07-17T11:25:31;101419.34;;;19.69;69.92
25156;BME280;21913;52.456;13.634;2022-07-17T11:30:32;101421.06;;;19.70;69.82
25156;BME280;21913;52.456;13.634;2022-07-17T11:35:33;101425.47;;;19.70;70.06
25156;BME280;21913;52.456;13.634;2022-07-17T11:40:46;101415.84;;;19.69;69.90
25156;BME280;21913;52.456;13.634;2022-07-17T11:45:47;101425.47;;;19.70;69.98
25156;BME280;21913;52.456;13.634;2022-07-17T11:50:53;101422.84;;;19.70;69.90
25156;BME280;21913;52.456;13.634;2022-07-17T11:55:57;101421.97;;;19.69;70.16
25156;BME280;21913;52.456;13.634;2022-07-17T12:01:04;101416.72;;;19.69;69.96
25156;BME280;21913;52.456;13.634;2022-07-17T12:06:06;101421.09;;;19.69;69.97
25156;BME280;21913;52.456;13.634;2022-07-17T12:11:09;101410.59;;;19.69;70.04
25156;BME280;21913;52.456;13.634;2022-07-17T12:21:50;101408.84;;;19.68;70.22
25156;BME280;21913;52.456;13.634;2022-07-17T12:26:53;101398.34;;;19.68;70.08
25156;BME280;21913;52.456;13.634;2022-07-17T12:32:08;101400.97;;;19.68;70.18
25156;BME280;21913;52.456;13.634;2022-07-17T12:37:14;101397.47;;;19.67;70.22
25156;BME280;21913;52.456;13.634;2022-07-17T12:42:16;101391.38;;;19.68;70.10
25156;BME280;21913;52.456;13.634;2022-07-17T12:47:17;101386.97;;;19.69;70.26
25156;BME280;21913;52.456;13.634;2022-07-17T12:52:19;101382.59;;;19.68;70.31
25156;BME280;21913;52.456;13.634;2022-07-17T12:57:20;101381.72;;;19.67;70.26
25156;BME280;21913;52.456;13.634;2022-07-17T13:02:22;101381.72;;;19.67;70.27
25156;BME280;21913;52.456;13.634;2022-07-17T13:07:24;101376.47;;;19.67;70.34
25156;BME280;21913;52.456;13.634;2022-07-17T13:12:25;101380.91;;;19.65;70.24
25156;BME280;21913;52.456;13.634;2022-07-17T13:17:26;101375.59;;;19.67;70.27
25156;BME280;21913;52.456;13.634;2022-07-17T13:22:28;101370.34;;;19.67;70.35
25156;BME280;21913;52.456;13.634;2022-07-17T13:27:29;101361.63;;;19.66;70.20
25156;BME280;21913;52.456;13.634;2022-07-17T13:32:31;101356.34;;;19.68;70.46
25156;BME280;21913;52.456;13.634;2022-07-17T13:37:32;101358.09;;;19.67;70.48
25156;BME280;21913;52.456;13.634;2022-07-17T13:42:34;101360.72;;;19.67;70.46
25156;BME280;21913;52.456;13.634;2022-07-17T13:47:35;101365.97;;;19.67;70.21
25156;BME280;21913;52.456;13.634;2022-07-17T13:52:38;101354.59;;;19.67;70.35
25156;BME280;21913;52.456;13.634;2022-07-17T13:57:40;101351.97;;;19.67;70.44
25156;BME280;21913;52.456;13.634;2022-07-17T14:02:42;101347.59;;;19.67;70.33
25156;BME280;21913;52.456;13.634;2022-07-17T14:07:43;101349.34;;;19.67;70.41
25156;BME280;21913;52.456;13.634;2022-07-17T14:12:45;101344.97;;;19.67;70.29
25156;BME280;21913;52.456;13.634;2022-07-17T14:17:46;101343.19;;;19.68;70.41
25156;BME280;21913;52.456;13.634;2022-07-17T14:22:48;101333.59;;;19.67;70.30
25156;BME280;21913;52.456;13.634;2022-07-17T14:27:49;101328.34;;;19.67;70.31
25156;BME280;21913;52.456;13.634;2022-07-17T14:32:52;101328.34;;;19.67;70.45
25156;BME280;21913;52.456;13.634;2022-07-17T14:37:53;101320.47;;;19.67;70.32
25156;BME280;21913;52.456;13.634;2022-07-17T14:42:56;101320.47;;;19.68;70.57
25156;BME280;21913;52.456;13.634;2022-07-17T14:47:57;101308.22;;;19.67;70.42
25156;BME280;21913;52.456;13.634;2022-07-17T14:52:59;101302.97;;;19.67;70.54
25156;BME280;21913;52.456;13.634;2022-07-17T14:58:00;101306.44;;;19.68;70.37
25156;BME280;21913;52.456;13.634;2022-07-17T15:03:02;101294.22;;;19.67;70.55
25156;BME280;21913;52.456;13.634;2022-07-17T15:08:03;101292.47;;;19.67;70.60
25156;BME280;21913;52.456;13.634;2022-07-17T15:13:05;101292.47;;;19.67;70.80
25156;BME280;21913;52.456;13.634;2022-07-17T15:18:06;101299.47;;;19.68;70.68
25156;BME280;21913;52.456;13.634;2022-07-17T15:23:08;101283.72;;;19.68;70.22
25156;BME280;21913;52.456;13.634;2022-07-17T15:28:10;101288.97;;;19.68;70.46
25156;BME280;21913;52.456;13.634;2022-07-17T15:33:11;101295.09;;;19.69;70.64
25156;BME280;21913;52.456;13.634;2022-07-17T15:38:13;101288.97;;;19.68;70.42
25156;BME280;21913;52.456;13.634;2022-07-17T15:43:14;101290.69;;;19.68;70.37
25156;BME280;21913;52.456;13.634;2022-07-17T15:48:16;101269.69;;;19.68;70.50
25156;BME280;21913;52.456;13.634;2022-07-17T15:53:17;101275.84;;;19.68;70.67
25156;BME280;21913;52.456;13.634;2022-07-17T15:58:19;101261.81;;;19.68;70.53
25156;BME280;21913;52.456;13.634;2022-07-17T16:03:20;101260.94;;;19.67;70.36
25156;BME280;21913;52.456;13.634;2022-07-17T16:08:22;101258.31;;;19.69;70.54
25156;BME280;21913;52.456;13.634;2022-07-17T16:13:23;101249.59;;;19.68;70.75
25156;BME280;21913;52.456;13.634;2022-07-17T16:18:25;101251.31;;;19.68;70.65
25156;BME280;21913;52.456;13.634;2022-07-17T16:23:26;101235.56;;;19.68;70.73
25156;BME280;21913;52.456;13.634;2022-07-17T16:28:28;101246.97;;;19.68;70.72
25156;BME280;21913;52.456;13.634;2022-07-17T16:33:29;101234.69;;;19.69;70.74
25156;BME280;21913;52.456;13.634;2022-07-17T16:38:31;101234.69;;;19.69;70.70
25156;BME280;21913;52.456;13.634;2022-07-17T16:43:33;101227.69;;;19.69;70.86
25156;BME280;21913;52.456;13.634;2022-07-17T16:48:34;101226.81;;;19.69;70.62
25156;BME280;21913;52.456;13.634;2022-07-17T16:53:36;101220.69;;;19.68;70.64
25156;BME280;21913;52.456;13.634;2022-07-17T16:58:38;101215.41;;;19.70;70.80
25156;BME280;21913;52.456;13.634;2022-07-17T17:03:39;101211.94;;;19.69;70.71
25156;BME280;21913;52.456;13.634;2022-07-17T17:08:41;101205.81;;;19.69;70.62
25156;BME280;21913;52.456;13.634;2022-07-17T17:13:43;101205.81;;;19.69;70.66
25156;BME280;21913;52.456;13.634;2022-07-17T17:18:44;101208.44;;;19.69;70.88
25156;BME280;21913;52.456;13.634;2022-07-17T17:23:46;101190.91;;;19.69;70.71
25156;BME280;21913;52.456;13.634;2022-07-17T17:28:47;101195.31;;;19.69;70.80
25156;BME280;21913;52.456;13.634;2022-07-17T17:33:49;101184.81;;;19.69;70.86
25156;BME280;21913;52.456;13.634;2022-07-17T17:38:50;101190.91;;;19.69;70.84
25156;BME280;21913;52.456;13.634;2022-07-17T17:43:52;101184.81;;;19.69;70.75
25156;BME280;21913;52.456;13.634;2022-07-17T17:48:53;101185.66;;;19.69;70.64
25156;BME280;21913;52.456;13.634;2022-07-17T17:53:55;101188.28;;;19.69;70.62
25156;BME280;21913;52.456;13.634;2022-07-17T17:58:56;101183.94;;;19.68;70.59
25156;BME280;21913;52.456;13.634;2022-07-17T18:03:58;101184.81;;;19.69;70.65
25156;BME280;21913;52.456;13.634;2022-07-17T18:08:59;101187.44;;;19.69;70.64
25156;BME280;21913;52.456;13.634;2022-07-17T18:14:00;101176.94;;;19.69;70.85
25156;BME280;21913;52.456;13.634;2022-07-17T18:19:02;101188.28;;;19.69;70.86
25156;BME280;21913;52.456;13.634;2022-07-17T18:24:04;101190.06;;;19.69;70.59
25156;BME280;21913;52.456;13.634;2022-07-17T18:29:05;101192.69;;;19.69;70.70
25156;BME280;21913;52.456;13.634;2022-07-17T18:34:07;101198.78;;;19.69;70.58
25156;BME280;21913;52.456;13.634;2022-07-17T18:39:08;101204.06;;;19.69;70.74
25156;BME280;21913;52.456;13.634;2022-07-17T18:44:10;101206.69;;;19.69;70.61
25156;BME280;21913;52.456;13.634;2022-07-17T18:49:11;101208.44;;;19.69;70.81
25156;BME280;21913;52.456;13.634;2022-07-17T18:54:13;101212.78;;;19.70;70.82
25156;BME280;21913;52.456;13.634;2022-07-17T18:59:14;101211.06;;;19.69;70.84
25156;BME280;21913;52.456;13.634;2022-07-17T19:04:16;101217.19;;;19.69;70.65
25156;BME280;21913;52.456;13.634;2022-07-17T19:09:17;101218.06;;;19.68;70.55
25156;BME280;21913;52.456;13.634;2022-07-17T19:14:19;101216.31;;;19.69;70.52
25156;BME280;21913;52.456;13.634;2022-07-17T19:19:20;101224.19;;;19.69;70.66
25156;BME280;21913;52.456;13.634;2022-07-17T19:24:22;101230.31;;;19.69;70.72
25156;BME280;21913;52.456;13.634;2022-07-17T19:29:23;101230.31;;;19.69;70.58
25156;BME280;21913;52.456;13.634;2022-07-17T19:34:25;101230.31;;;19.68;70.60
25156;BME280;21913;52.456;13.634;2022-07-17T19:39:27;101229.44;;;19.69;70.64
25156;BME280;21913;52.456;13.634;2022-07-17T19:44:28;101236.44;;;19.68;70.57
25156;BME280;21913;52.456;13.634;2022-07-17T19:49:30;101234.69;;;19.69;70.65
25156;BME280;21913;52.456;13.634;2022-07-17T19:54:32;101233.84;;;19.68;70.86
25156;BME280;21913;52.456;13.634;2022-07-17T19:59:33;101237.31;;;19.69;70.72
25156;BME280;21913;52.456;13.634;2022-07-17T20:04:36;101244.28;;;19.70;70.81
25156;BME280;21913;52.456;13.634;2022-07-17T20:09:38;101238.19;;;19.68;70.59
25156;BME280;21913;52.456;13.634;2022-07-17T20:14:39;101243.44;;;19.68;70.61
25156;BME280;21913;52.456;13.634;2022-07-17T20:19:41;101250.44;;;19.69;70.94
25156;BME280;21913;52.456;13.634;2022-07-17T20:24:42;101244.34;;;19.68;70.81
25156;BME280;21913;52.456;13.634;2022-07-17T20:29:44;101247.81;;;19.69;70.54
25156;BME280;21913;52.456;13.634;2022-07-17T20:34:45;101246.97;;;19.68;70.46
25156;BME280;21913;52.456;13.634;2022-07-17T20:39:47;101241.72;;;19.68;70.63
25156;BME280;21913;52.456;13.634;2022-07-17T20:44:48;101243.44;;;19.68;70.82
25156;BME280;21913;52.456;13.634;2022-07-17T20:49:50;101238.19;;;19.68;70.88
25156;BME280;21913;52.456;13.634;2022-07-17T20:54:51;101241.72;;;19.68;70.88
25156;BME280;21913;52.456;13.634;2022-07-17T20:59:53;101245.19;;;19.67;70.80
25156;BME280;21913;52.456;13.634;2022-07-17T21:04:54;101247.81;;;19.69;70.87
25156;BME280;21913;52.456;13.634;2022-07-17T21:09:56;101244.34;;;19.68;70.70
25156;BME280;21913;52.456;13.634;2022-07-17T21:14:57;101230.31;;;19.68;70.68
25156;BME280;21913;52.456;13.634;2022-07-17T21:19:59;101237.31;;;19.67;70.64
25156;BME280;21913;52.456;13.634;2022-07-17T21:25:00;101228.59;;;19.68;70.92
25156;BME280;21913;52.456;13.634;2022-07-17T21:30:02;101237.31;;;19.67;70.86
25156;BME280;21913;52.456;13.634;2022-07-17T21:35:04;101241.72;;;19.68;70.77
25156;BME280;21913;52.456;13.634;2022-07-17T21:40:06;101240.81;;;19.68;70.86
25156;BME280;21913;52.456;13.634;2022-07-17T21:45:08;101237.31;;;19.69;70.73
25156;BME280;21913;52.456;13.634;2022-07-17T21:50:09;101231.22;;;19.68;70.65
25156;BME280;21913;52.456;13.634;2022-07-17T21:55:11;101232.06;;;19.69;70.86
25156;BME280;21913;52.456;13.634;2022-07-17T22:00:13;101238.19;;;19.68;70.60
25156;BME280;21913;52.456;13.634;2022-07-17T22:05:15;101239.09;;;19.68;70.67
25156;BME280;21913;52.456;13.634;2022-07-17T22:10:16;101240.81;;;19.68;70.59
25156;BME280;21913;52.456;13.634;2022-07-17T22:15:18;101241.72;;;19.68;70.56
25156;BME280;21913;52.456;13.634;2022-07-17T22:20:20;101238.19;;;19.68;70.66
25156;BME280;21913;52.456;13.634;2022-07-17T22:25:21;101232.94;;;19.68;70.71
25156;BME280;21913;52.456;13.634;2022-07-17T22:30:23;101219.81;;;19.68;70.68
25156;BME280;21913;52.456;13.634;2022-07-17T22:35:25;101207.59;;;19.67;70.71
25156;BME280;21913;52.456;13.634;2022-07-17T22:40:26;101209.31;;;19.68;70.74
25156;BME280;21913;52.456;13.634;2022-07-17T22:45:28;101199.69;;;19.68;70.50
25156;BME280;21913;52.456;13.634;2022-07-17T22:50:29;101197.94;;;19.67;70.53
25156;BME280;21913;52.456;13.634;2022-07-17T22:55:31;101197.06;;;19.67;70.71
25156;BME280;21913;52.456;13.634;2022-07-17T23:00:34;101192.69;;;19.67;70.66
25156;BME280;21913;52.456;13.634;2022-07-17T23:05:37;101195.31;;;19.67;70.71
25156;BME280;21913;52.456;13.634;2022-07-17T23:10:38;101198.81;;;19.68;70.66
25156;BME280;21913;52.456;13.634;2022-07-17T23:15:40;101199.69;;;19.68;70.67
25156;BME280;21913;52.456;13.634;2022-07-17T23:20:41;101195.31;;;19.69;70.62
25156;BME280;21913;52.456;13.634;2022-07-17T23:25:43;101205.81;;;19.69;70.65
25156;BME280;21913;52.456;13.634;2022-07-17T23:30:44;101221.56;;;19.69;70.63
25156;BME280;21913;52.456;13.634;2022-07-17T23:35:49;101221.56;;;19.69;70.81
25156;BME280;21913;52.456;13.634;2022-07-17T23:40:51;101221.56;;;19.69;70.73
25156;BME280;21913;52.456;13.634;2022-07-17T23:45:52;101231.22;;;19.68;70.65
25156;BME280;21913;52.456;13.634;2022-07-17T23:50:54;101225.94;;;19.68;70.64
25156;BME280;21913;52.456;13.634;2022-07-17T23:55:55;101220.69;;;19.68;70.51
